Time;durP1;ratioP1;P1;durP2;ratioP2;P2;SDS_P1;SDS_P2;PMS_P1;PMS_P2;Temp;Humidity;BMP_temperature;BMP_pressure;BME280_temperature;BME280_humidity;BME280_pressure;Samples;Min_cycle;Max_cycle;Signal;HPM_P1;HPM_P2
2022/03/10 00:00:28;;;;;;;16.30;9.65;;;;;;;3.54;58.49;101024.94;5037925;28;20021;-87
2022/03/10 00:02:54;;;;;;;14.80;9.43;;;;;;;3.52;58.78;101029.31;5021561;28;20521;-87
2022/03/10 00:05:22;;;;;;;17.45;9.98;;;;;;;3.47;59.10;101034.53;5036711;28;20111;-88
2022/03/10 00:07:51;;;;;;;14.23;9.15;;;;;;;3.48;59.04;101024.88;5020440;28;20053;-87
2022/03/10 00:10:19;;;;;;;16.73;9.23;;;;;;;3.42;60.00;101030.97;5020549;28;20029;-87
2022/03/10 00:12:59;;;;;;;16.50;9.50;;;;;;;3.44;59.15;101035.41;5020745;28;20029;-88
2022/03/10 00:15:28;;;;;;;15.45;9.27;;;;;;;3.43;60.17;101038.00;5037378;28;20017;-88
2022/03/10 00:18:02;;;;;;;13.18;8.93;;;;;;;3.39;59.99;101037.09;5018902;28;20410;-87
2022/03/10 00:20:27;;;;;;;15.65;9.77;;;;;;;3.38;60.62;101037.94;5019970;28;20405;-87
2022/03/10 00:22:55;;;;;;;16.33;9.48;;;;;;;3.34;60.21;101044.06;5037816;28;20017;-86
2022/03/10 00:25:23;;;;;;;15.70;9.43;;;;;;;3.34;60.80;101049.34;5037516;28;20018;-88
2022/03/10 00:27:51;;;;;;;17.25;9.85;;;;;;;3.34;60.74;101044.06;5036050;28;20033;-87
2022/03/10 00:30:19;;;;;;;17.83;9.77;;;;;;;3.32;60.25;101054.63;5020184;28;20083;-87
2022/03/10 00:32:48;;;;;;;18.23;10.95;;;;;;;3.15;61.59;101053.50;5019332;28;20033;-86
2022/03/10 00:35:22;;;;;;;20.70;10.95;;;;;;;2.99;62.99;101062.09;5036962;28;20024;-88
2022/03/10 00:37:53;;;;;;;17.85;11.18;;;;;;;2.95;63.14;101062.03;5018898;28;20033;-87
2022/03/10 00:40:25;;;;;;;17.95;11.02;;;;;;;2.84;63.63;101065.41;5037508;28;20025;-87
2022/03/10 00:42:55;;;;;;;18.73;11.57;;;;;;;2.78;64.09;101068.81;5019588;28;20071;-87
2022/03/10 00:45:33;;;;;;;17.83;11.25;;;;;;;2.65;63.97;101062.50;5019302;28;20025;-87
2022/03/10 00:47:59;;;;;;;19.55;11.32;;;;;;;2.37;64.95;101071.72;5020403;28;20025;-87
2022/03/10 00:50:25;;;;;;;18.77;11.23;;;;;;;2.34;65.89;101080.47;5019746;28;20029;-87
2022/03/10 00:52:50;;;;;;;18.92;11.15;;;;;;;2.17;66.94;101080.16;5037699;28;20025;-87
2022/03/10 00:55:20;;;;;;;18.08;12.13;;;;;;;2.19;67.91;101079.31;5020024;28;20021;-87
2022/03/10 00:57:47;;;;;;;18.05;11.40;;;;;;;2.12;67.04;101086.22;5019831;28;20124;-87
2022/03/10 01:00:13;;;;;;;18.73;11.73;;;;;;;2.08;67.57;101084.41;5037628;28;20474;-87
2022/03/10 01:02:47;;;;;;;17.17;11.05;;;;;;;2.02;67.95;101084.28;5019581;28;20029;-87
2022/03/10 01:05:20;;;;;;;19.63;11.00;;;;;;;2.04;67.61;101079.94;5037030;28;20033;-87
2022/03/10 01:07:49;;;;;;;17.35;10.88;;;;;;;1.96;68.73;101077.16;5018674;28;20032;-87
2022/03/10 01:10:21;;;;;;;19.52;11.27;;;;;;;2.00;68.97;101070.22;5019110;28;20463;-87
2022/03/10 01:12:50;;;;;;;16.92;10.75;;;;;;;2.06;67.39;101065.03;5019921;28;20061;-87
2022/03/10 01:15:26;;;;;;;19.77;10.50;;;;;;;2.16;66.56;101070.50;5046167;28;20127;-87
2022/03/10 01:17:59;;;;;;;19.20;11.20;;;;;;;2.23;66.20;101067.09;5039786;28;20052;-87
2022/03/10 01:20:26;;;;;;;18.38;10.68;;;;;;;2.26;66.64;101072.44;5038583;28;20049;-87
2022/03/10 01:23:01;;;;;;;17.13;10.48;;;;;;;2.28;66.16;101070.69;5020258;28;20033;-87
2022/03/10 01:25:29;;;;;;;17.08;10.65;;;;;;;2.29;65.97;101074.22;5027169;28;20383;-88
2022/03/10 01:27:58;;;;;;;16.83;10.80;;;;;;;2.27;66.25;101068.91;5038866;28;20040;-87
2022/03/10 01:30:24;;;;;;;18.98;10.32;;;;;;;2.29;66.58;101075.13;5054851;28;20037;-87
2022/03/10 01:33:02;;;;;;;16.58;10.63;;;;;;;2.27;66.67;101071.53;5039022;28;20028;-87
2022/03/10 01:35:31;;;;;;;17.02;11.10;;;;;;;2.25;66.28;101070.63;5039689;28;20040;-88
2022/03/10 01:38:04;;;;;;;19.52;11.65;;;;;;;2.20;66.92;101067.03;5057010;28;20017;-87
2022/03/10 01:40:32;;;;;;;16.52;10.95;;;;;;;2.15;66.84;101068.69;5038907;28;20025;-87
2022/03/10 01:43:05;;;;;;;18.98;11.07;;;;;;;2.03;67.12;101072.91;5056863;28;20021;-87
2022/03/10 01:45:31;;;;;;;21.25;12.63;;;;;;;1.95;68.20;101071.88;5055939;28;20027;-88
2022/03/10 01:47:58;;;;;;;18.45;11.05;;;;;;;1.89;68.33;101068.25;5038833;28;20033;-87
2022/03/10 01:50:24;;;;;;;21.20;11.65;;;;;;;1.86;68.04;101068.19;5037442;28;20017;-87
2022/03/10 01:52:49;;;;;;;19.63;11.98;;;;;;;1.81;68.95;101072.50;5036163;28;20033;-87
2022/03/10 01:55:15;;;;;;;18.95;12.15;;;;;;;1.75;69.49;101062.72;5054529;28;20068;-87
2022/03/10 01:57:44;;;;;;;20.70;12.60;;;;;;;1.67;70.12;101073.13;5036600;28;20053;-86
2022/03/10 02:00:14;;;;;;;19.67;11.93;;;;;;;1.62;70.28;101069.53;5054229;28;20079;-87
2022/03/10 02:02:45;;;;;;;19.45;12.18;;;;;;;1.54;71.12;101066.75;5038099;28;20045;-87
2022/03/10 02:05:16;;;;;;;22.77;12.85;;;;;;;1.50;71.27;101064.00;5038880;28;20021;-87
2022/03/10 02:10:29;;;;;;;27.30;12.68;;;;;;;1.42;72.65;101067.34;5053955;28;20044;-88
2022/03/10 02:13:01;;;;;;;20.95;12.38;;;;;;;1.34;72.21;101067.19;5032289;28;20036;-88
2022/03/10 02:18:20;;;;;;;20.95;11.77;;;;;;;1.20;74.07;101053.75;5039477;28;20044;-88
2022/03/10 02:20:46;;;;;;;20.75;11.93;;;;;;;1.19;73.42;101054.59;5020133;28;20028;-87
2022/03/10 02:23:12;;;;;;;21.65;11.68;;;;;;;1.16;73.41;101059.78;5038015;28;20394;-88
2022/03/10 02:25:39;;;;;;;19.50;11.95;;;;;;;1.16;73.74;101054.53;5017223;28;20124;-89
2022/03/10 02:28:08;;;;;;;21.30;11.82;;;;;;;1.14;74.37;101061.50;5034006;28;20021;-88
2022/03/10 02:30:46;;;;;;;20.80;11.98;;;;;;;1.13;73.96;101054.50;5018617;28;20064;-88
2022/03/10 02:33:24;;;;;;;21.98;12.23;;;;;;;1.10;74.77;101064.94;5018712;28;20394;-88
2022/03/10 02:35:50;;;;;;;19.00;11.93;;;;;;;1.07;74.44;101064.88;5017340;28;20025;-87
2022/03/10 02:38:18;;;;;;;20.13;12.13;;;;;;;1.07;74.78;101051.72;5035326;28;20395;-87
2022/03/10 02:40:50;;;;;;;20.73;12.32;;;;;;;0.96;75.30;101057.63;5018984;28;20041;-87
2022/03/10 02:43:23;;;;;;;20.05;11.55;;;;;;;0.94;75.56;101054.09;5020024;28;20037;-87
2022/03/10 02:45:52;;;;;;;19.65;12.30;;;;;;;0.94;75.60;101058.44;5034885;28;20021;-88
2022/03/10 02:48:49;;;;;;;22.75;12.70;;;;;;;0.92;75.39;101058.44;5035617;28;20370;-89
2022/03/10 02:51:22;;;;;;;19.73;11.85;;;;;;;0.93;75.08;101051.44;5035196;28;20434;-87
2022/03/10 02:53:47;;;;;;;21.73;12.13;;;;;;;0.98;74.63;101058.53;5022486;28;20048;-87
2022/03/10 02:56:13;;;;;;;19.80;11.02;;;;;;;1.05;74.19;101048.16;5039644;28;20029;-87
2022/03/10 02:58:40;;;;;;;16.52;10.20;;;;;;;1.17;73.24;101045.81;5039294;28;20037;-87
2022/03/10 03:01:06;;;;;;;18.15;10.85;;;;;;;1.24;72.96;101053.84;5020024;28;20033;-87
2022/03/10 03:03:38;;;;;;;18.35;10.75;;;;;;;1.27;72.70;101048.63;5038899;28;20025;-87
2022/03/10 03:06:20;;;;;;;17.92;10.57;;;;;;;1.28;72.39;101056.56;5039111;28;20017;-87
2022/03/10 03:08:49;;;;;;;19.02;10.70;;;;;;;1.26;72.37;101052.13;5021365;28;20374;-87
2022/03/10 03:11:18;;;;;;;19.85;10.35;;;;;;;1.19;72.98;101051.97;5021051;28;20430;-87
2022/03/10 03:13:49;;;;;;;22.05;10.48;;;;;;;1.22;72.67;101048.53;5038623;28;20470;-87
2022/03/10 03:16:14;;;;;;;20.48;11.48;;;;;;;1.24;72.51;101045.94;5020788;28;20045;-87
2022/03/10 03:18:49;;;;;;;17.73;10.48;;;;;;;1.28;72.56;101045.13;5039985;28;20025;-87
2022/03/10 03:21:18;;;;;;;19.50;10.90;;;;;;;1.27;72.18;101051.25;5023064;28;20028;-87
2022/03/10 03:23:47;;;;;;;20.45;11.80;;;;;;;1.27;72.16;101045.97;5018449;28;20038;-86
2022/03/10 03:26:16;;;;;;;18.45;10.38;;;;;;;1.25;71.79;101043.34;5036333;28;20017;-88
2022/03/10 03:28:50;;;;;;;19.75;11.30;;;;;;;1.15;73.25;101042.25;5018340;28;20454;-87
2022/03/10 03:31:20;;;;;;;20.20;11.93;;;;;;;1.13;73.44;101038.72;5035325;28;20029;-87
2022/03/10 03:33:52;;;;;;;18.35;10.20;;;;;;;1.12;73.19;101042.19;5017383;28;20021;-87
2022/03/10 03:36:38;;;;;;;21.77;11.18;;;;;;;1.08;73.29;101035.09;5035293;28;20026;-87
2022/03/10 03:39:07;;;;;;;15.68;10.18;;;;;;;1.11;72.99;101037.75;5017556;28;20033;-87
2022/03/10 03:41:40;;;;;;;15.75;9.82;;;;;;;1.08;73.09;101040.34;5018418;28;20079;-87
2022/03/10 03:44:12;;;;;;;;;;;;;;;1.06;73.16;101029.78;5018827;28;20026;-87
2022/03/10 03:46:41;;;;;;;16.98;10.20;;;;;;;1.08;73.05;101033.31;5035659;28;19967;-87
2022/03/10 03:49:08;;;;;;;17.88;10.15;;;;;;;1.08;73.15;101040.34;5018072;28;20382;-87
2022/03/10 03:51:57;;;;;;;16.35;10.07;;;;;;;1.08;72.96;101042.97;5037648;28;20017;-87
2022/03/10 03:54:24;;;;;;;18.55;9.85;;;;;;;1.06;73.11;101039.41;5026708;28;20049;-87
2022/03/10 03:56:50;;;;;;;17.88;10.30;;;;;;;1.04;73.43;101049.00;5020185;28;20033;-87
2022/03/10 03:59:20;;;;;;;18.58;10.48;;;;;;;0.94;74.65;101050.56;5021469;28;20029;-87
2022/03/10 04:01:46;;;;;;;19.25;10.25;;;;;;;0.88;74.47;101051.31;5038258;28;20040;-87
2022/03/10 04:04:22;;;;;;;17.90;10.55;;;;;;;0.87;74.87;101054.81;5020776;28;20025;-87
2022/03/10 04:06:51;;;;;;;16.65;9.85;;;;;;;0.74;75.46;101054.53;5021081;28;20030;-87
2022/03/10 04:09:28;;;;;;;17.25;10.20;;;;;;;0.66;76.51;101061.34;5021008;28;20057;-87
2022/03/10 04:11:58;;;;;;;19.05;10.13;;;;;;;0.59;76.33;101060.31;5018645;28;20030;-86
2022/03/10 04:14:26;;;;;;;17.52;10.85;;;;;;;0.61;76.33;101060.34;5020560;28;20478;-87
2022/03/10 04:17:00;;;;;;;26.70;12.10;;;;;;;0.62;76.34;101056.88;5021562;28;20029;-87
2022/03/10 04:19:26;;;;;;;17.60;10.10;;;;;;;0.59;76.59;101062.94;5021738;28;20394;-86
2022/03/10 04:21:57;;;;;;;19.98;10.77;;;;;;;0.54;77.01;101060.19;5039213;28;20021;-87
2022/03/10 04:24:29;;;;;;;21.05;10.50;;;;;;;0.48;77.48;101060.06;5039542;28;20024;-87
2022/03/10 04:26:57;;;;;;;19.08;11.00;;;;;;;0.47;77.53;101063.53;5020304;28;20085;-86
2022/03/10 04:29:25;;;;;;;19.27;10.90;;;;;;;0.44;77.85;101064.34;5021252;28;20513;-86
2022/03/10 04:31:51;;;;;;;19.45;11.38;;;;;;;0.33;77.97;101068.44;5038555;28;20025;-87
2022/03/10 04:34:39;;;;;;;19.08;10.95;;;;;;;0.27;78.88;101074.44;5038205;28;20064;-87
2022/03/10 04:37:05;;;;;;;19.55;10.50;;;;;;;0.26;78.96;101077.91;5036538;28;20386;-86
2022/03/10 04:39:36;;;;;;;20.02;11.02;;;;;;;0.31;78.81;101083.28;5018753;28;20025;-87
2022/03/10 04:42:07;;;;;;;22.75;11.30;;;;;;;0.30;79.29;101077.16;5036784;28;20034;-87
2022/03/10 04:44:52;;;;;;;20.77;11.30;;;;;;;0.25;79.49;101089.28;5037161;28;20390;-86
2022/03/10 04:50:14;;;;;;;19.35;11.77;;;;;;;0.22;79.12;101091.81;5020346;28;20613;-86
2022/03/10 04:52:48;;;;;;;25.30;11.43;;;;;;;0.19;79.93;101096.97;5019411;28;20394;-86
2022/03/10 04:55:13;;;;;;;22.25;11.80;;;;;;;0.17;79.58;101090.81;5034817;28;20406;-87
2022/03/10 04:57:40;;;;;;;16.98;11.15;;;;;;;0.19;79.07;101090.00;5036397;28;20025;-86
2022/03/10 05:00:10;;;;;;;16.23;9.88;;;;;;;0.20;79.04;101085.63;5017859;28;20474;-87
2022/03/10 05:02:39;;;;;;;20.33;10.32;;;;;;;0.16;79.72;101089.00;5034552;28;20032;-87
2022/03/10 05:05:06;;;;;;;20.25;10.27;;;;;;;0.09;80.12;101091.50;5036015;28;20029;-87
2022/03/10 05:07:31;;;;;;;19.45;10.98;;;;;;;-0.05;81.49;101090.25;5036094;28;20029;-87
2022/03/10 05:09:58;;;;;;;20.80;10.93;;;;;;;-0.04;80.95;101087.66;5036253;28;20033;-87
2022/03/10 05:12:23;;;;;;;22.30;10.75;;;;;;;-0.10;80.99;101090.09;5017647;28;20510;-87
2022/03/10 05:14:48;;;;;;;21.42;10.43;;;;;;;-0.12;81.77;101084.81;5035171;28;20036;-85
2022/03/10 05:17:14;;;;;;;20.05;11.50;;;;;;;-0.09;81.95;101083.13;5017531;28;20025;-87
2022/03/10 05:19:39;;;;;;;18.92;10.40;;;;;;;-0.04;81.31;101081.50;5017860;28;20121;-87
2022/03/10 05:22:05;;;;;;;20.70;10.75;;;;;;;-0.05;81.28;101085.00;5017717;28;20029;-85
2022/03/10 05:24:30;;;;;;;21.10;10.40;;;;;;;-0.05;80.99;101079.75;5044819;28;20028;-87
2022/03/10 05:26:57;;;;;;;19.23;10.77;;;;;;;0.00;80.36;101083.38;5036106;28;20048;-86
2022/03/10 05:29:22;;;;;;;18.35;9.75;;;;;;;0.05;80.42;101080.88;5018320;28;20482;-86
2022/03/10 05:31:51;;;;;;;19.27;11.02;;;;;;;0.01;80.70;101085.16;5035752;28;20025;-86
2022/03/10 05:34:17;;;;;;;17.48;10.18;;;;;;;0.04;79.93;101084.34;5019863;28;20025;-87
2022/03/10 05:36:42;;;;;;;19.60;10.25;;;;;;;-0.03;80.18;101093.81;5020141;28;20029;-88
2022/03/10 05:39:07;;;;;;;18.92;9.35;;;;;;;-0.04;80.45;101086.75;5037744;28;20025;-89
2022/03/10 05:41:33;;;;;;;18.35;10.50;;;;;;;-0.04;80.02;101089.38;5034788;28;20021;-89
2022/03/10 05:43:59;;;;;;;20.45;10.82;;;;;;;-0.03;80.28;101094.69;5035545;28;20100;-88
2022/03/10 05:46:24;;;;;;;19.98;10.73;;;;;;;-0.16;81.82;101103.97;5035265;28;20544;-87
2022/03/10 05:48:55;;;;;;;18.02;10.18;;;;;;;-0.19;81.28;101093.38;5035736;28;20029;-87
2022/03/10 05:51:21;;;;;;;19.13;10.18;;;;;;;-0.19;81.86;101097.72;5035146;28;20029;-86
2022/03/10 05:53:55;;;;;;;19.80;11.85;;;;;;;-0.20;82.03;101099.47;5035322;28;20079;-86
2022/03/10 05:56:20;;;;;;;19.90;10.68;;;;;;;-0.24;81.80;101095.00;5033272;28;20041;-88
2022/03/10 05:58:46;;;;;;;20.80;10.77;;;;;;;-0.24;82.47;101100.25;5017799;28;20028;-87
2022/03/10 06:01:14;;;;;;;18.48;10.48;;;;;;;-0.31;83.06;101104.41;5035308;28;20045;-85
2022/03/10 06:03:54;;;;;;;18.85;10.88;;;;;;;-0.42;83.68;101106.75;5035115;28;20021;-88
2022/03/10 06:06:19;;;;;;;18.88;10.82;;;;;;;-0.49;84.18;101099.56;5018086;28;20017;-88
2022/03/10 06:08:44;;;;;;;21.80;11.07;;;;;;;-0.63;85.14;101100.03;5036210;28;20024;-88
2022/03/10 06:11:10;;;;;;;19.70;10.93;;;;;;;-0.72;86.29;101112.88;5036954;28;20038;-87
2022/03/10 06:13:38;;;;;;;18.25;9.82;;;;;;;-0.76;86.77;101113.63;5035550;28;20039;-87
2022/03/10 06:16:07;;;;;;;20.10;10.90;;;;;;;-0.86;88.48;101118.59;5035724;28;20494;-87
2022/03/10 06:18:32;;;;;;;19.77;11.50;;;;;;;-0.95;90.07;101126.16;5035380;28;20392;-87
2022/03/10 06:20:58;;;;;;;19.83;10.70;;;;;;;-0.90;89.04;101124.56;5034974;28;20022;-86
2022/03/10 06:23:26;;;;;;;25.33;11.35;;;;;;;-0.94;89.87;101128.84;5019224;28;20076;-87
2022/03/10 06:26:02;;;;;;;;;;;;;;;;;;;;;
2022/03/10 06:28:29;;;;;;;19.77;10.05;;;;;;;-0.86;89.84;101134.31;5036393;28;20025;-87
2022/03/10 06:30:55;;;;;;;18.35;10.30;;;;;;;-0.87;90.81;101139.50;5018766;28;20029;-86
2022/03/10 06:33:20;;;;;;;21.52;11.00;;;;;;;-0.85;91.14;101136.09;5056827;28;20032;-86
2022/03/10 06:35:48;;;;;;;19.92;10.45;;;;;;;-0.84;90.33;101144.84;5057645;28;20046;-87
2022/03/10 06:38:13;;;;;;;20.65;10.75;;;;;;;-0.86;91.08;101144.81;5026624;28;20022;-87
2022/03/10 06:40:39;;;;;;;22.55;10.40;;;;;;;-0.81;90.79;101144.94;5018579;28;20030;-89
2022/03/10 06:43:04;;;;;;;18.90;10.60;;;;;;;-0.82;90.57;101143.16;5017018;28;20025;-87
2022/03/10 06:45:30;;;;;;;24.63;10.93;;;;;;;-0.75;90.46;101145.16;5016243;28;20017;-88
2022/03/10 06:47:55;;;;;;;24.63;10.75;;;;;;;-0.65;89.91;101146.31;5034050;28;20109;-88
2022/03/10 06:50:20;;;;;;;17.52;9.27;;;;;;;-0.60;89.90;101144.72;5034225;28;20035;-86
2022/03/10 06:52:46;;;;;;;20.25;10.73;;;;;;;-0.57;90.52;101150.03;5034688;28;20544;-87
2022/03/10 06:55:12;;;;;;;18.92;9.93;;;;;;;-0.47;89.57;101150.34;5034280;28;20018;-88
2022/03/10 06:57:38;;;;;;;20.40;10.20;;;;;;;-0.40;89.93;101152.28;5033812;28;20036;-89
2022/03/10 07:00:05;;;;;;;19.90;10.52;;;;;;;-0.34;89.88;101154.22;5016062;28;20029;-88
2022/03/10 07:02:33;;;;;;;20.05;10.57;;;;;;;-0.35;90.03;101153.31;5033578;28;20091;-89
2022/03/10 07:04:58;;;;;;;25.27;11.57;;;;;;;-0.29;90.45;101165.75;5033532;28;20044;-88
2022/03/10 07:07:23;;;;;;;18.60;10.63;;;;;;;-0.16;89.49;101160.84;5033615;28;20474;-88
2022/03/10 07:09:49;;;;;;;22.55;11.27;;;;;;;-0.12;89.22;101160.06;5033803;28;20029;-88
2022/03/10 07:12:14;;;;;;;18.83;10.63;;;;;;;0.05;87.88;101165.78;5016424;28;20021;-89
2022/03/10 07:14:40;;;;;;;23.88;11.00;;;;;;;0.11;87.48;101170.31;5033495;28;20402;-88
2022/03/10 07:17:05;;;;;;;20.67;11.68;;;;;;;0.18;87.13;101168.78;5033432;28;20056;-88
2022/03/10 07:19:30;;;;;;;22.40;11.50;;;;;;;0.28;87.08;101170.81;5033483;28;20470;-88
2022/03/10 07:21:56;;;;;;;20.08;10.75;;;;;;;0.39;86.63;101170.16;5032996;28;20029;-88
2022/03/10 07:24:21;;;;;;;18.13;10.05;;;;;;;0.51;85.92;101160.00;5033364;28;20025;-87
2022/03/10 07:26:47;;;;;;;19.70;10.75;;;;;;;0.68;85.24;101172.66;5036115;28;20017;-88
2022/03/10 07:29:12;;;;;;;18.92;9.77;;;;;;;0.81;85.14;101173.88;5037824;28;20025;-88
2022/03/10 07:31:37;;;;;;;16.50;9.68;;;;;;;0.94;84.45;101169.81;5037632;28;20497;-88
2022/03/10 07:34:03;;;;;;;18.95;10.60;;;;;;;1.04;84.14;101170.00;5020330;28;20083;-89
2022/03/10 07:36:28;;;;;;;17.85;10.88;;;;;;;1.23;83.99;101171.34;5019071;28;20022;-89
2022/03/10 07:38:54;;;;;;;19.55;10.70;;;;;;;1.31;83.93;101175.06;5037211;28;20375;-88
2022/03/10 07:41:20;;;;;;;16.33;10.13;;;;;;;1.46;82.24;101184.13;5037111;28;20022;-89
2022/03/10 07:43:45;;;;;;;20.25;10.65;;;;;;;1.58;82.09;101183.50;5037202;28;20112;-88
2022/03/10 07:46:11;;;;;;;20.67;10.52;;;;;;;1.78;79.65;101188.31;5036956;28;20017;-88
2022/03/10 07:48:36;;;;;;;24.02;10.05;;;;;;;1.94;78.99;101176.34;5019483;28;20029;-88
2022/03/10 07:51:02;;;;;;;18.35;9.70;;;;;;;2.07;79.58;101182.75;5036716;28;20028;-88
2022/03/10 07:53:27;;;;;;;15.30;9.15;;;;;;;2.24;78.22;101179.56;5036746;28;20025;-89
2022/03/10 07:55:55;;;;;;;14.85;9.43;;;;;;;2.39;78.98;101183.34;5035792;28;20120;-88
2022/03/10 07:58:23;;;;;;;16.98;9.18;;;;;;;2.63;76.79;101182.00;5036856;28;20112;-88
2022/03/10 08:00:49;;;;;;;16.52;9.48;;;;;;;2.85;75.08;101177.97;5018774;28;20029;-89
2022/03/10 08:03:15;;;;;;;17.17;9.55;;;;;;;2.98;74.81;101173.78;5019035;28;20482;-88
2022/03/10 08:05:40;;;;;;;17.90;9.98;;;;;;;3.22;73.93;101177.66;5036555;28;20104;-88
2022/03/10 08:08:05;;;;;;;14.30;9.57;;;;;;;3.43;73.98;101162.09;5018948;28;20120;-88
2022/03/10 08:10:34;;;;;;;14.98;8.70;;;;;;;3.71;71.16;101166.88;5018650;28;20104;-89
2022/03/10 08:12:59;;;;;;;16.42;8.82;;;;;;;3.96;69.31;101164.53;5035158;28;20493;-89
2022/03/10 08:15:26;;;;;;;20.02;9.00;;;;;;;4.21;67.59;101167.44;5018282;28;20112;-89
2022/03/10 08:17:51;;;;;;;14.45;8.80;;;;;;;4.54;64.58;101163.34;5018458;28;20025;-88
2022/03/10 08:20:17;;;;;;;14.15;9.00;;;;;;;4.69;64.08;101157.31;5018493;28;20367;-88
2022/03/10 08:22:42;;;;;;;16.73;8.50;;;;;;;4.90;62.53;101152.19;5018753;28;20025;-87
2022/03/10 08:25:08;;;;;;;13.10;8.60;;;;;;;5.13;60.31;101152.34;5034988;28;20025;-89
2022/03/10 08:27:34;;;;;;;15.32;8.93;;;;;;;5.27;59.93;101163.91;5036329;28;20026;-88
2022/03/10 08:29:59;;;;;;;16.05;9.07;;;;;;;5.41;60.00;101156.91;5036288;28;20553;-88
2022/03/10 08:32:26;;;;;;;15.80;9.15;;;;;;;5.56;57.87;101158.78;5036311;28;20029;-89
2022/03/10 08:34:52;;;;;;;19.58;9.27;;;;;;;5.67;57.65;101153.53;5035657;28;20029;-88
2022/03/10 08:37:19;;;;;;;12.27;8.23;;;;;;;5.87;57.48;101162.44;5035123;28;20040;-88
2022/03/10 08:39:45;;;;;;;13.07;8.50;;;;;;;5.92;56.33;101156.28;5037338;28;20025;-88
2022/03/10 08:42:10;;;;;;;14.23;8.10;;;;;;;6.02;56.59;101153.66;5018444;28;20025;-88
2022/03/10 08:44:36;;;;;;;16.23;8.75;;;;;;;6.20;56.20;101151.97;5018118;28;20505;-89
2022/03/10 08:47:01;;;;;;;12.90;8.15;;;;;;;6.32;54.97;101149.31;5018215;28;20139;-89
2022/03/10 08:49:30;;;;;;;13.38;7.78;;;;;;;6.39;55.09;101152.88;5035626;28;20100;-87
2022/03/10 08:51:55;;;;;;;13.00;8.18;;;;;;;6.55;54.58;101148.47;5036017;28;20026;-88
2022/03/10 08:54:21;;;;;;;15.82;8.30;;;;;;;6.63;54.33;101150.22;5034120;28;20112;-88
2022/03/10 08:56:46;;;;;;;14.65;8.45;;;;;;;6.75;53.17;101152.88;5017889;28;20060;-88
2022/03/10 08:59:11;;;;;;;12.63;8.43;;;;;;;6.82;53.31;101149.38;5042834;28;20052;-88
2022/03/10 09:01:38;;;;;;;16.02;8.40;;;;;;;7.04;52.87;101141.38;5044622;28;20029;-89
2022/03/10 09:04:03;;;;;;;16.85;8.25;;;;;;;7.17;52.27;101141.34;5027852;28;20440;-88
2022/03/10 09:06:29;;;;;;;15.07;8.60;;;;;;;7.26;51.61;101146.66;5028495;28;20025;-89
2022/03/10 09:08:57;;;;;;;19.70;8.63;;;;;;;7.35;51.68;101142.19;5017387;28;20025;-89
2022/03/10 09:11:22;;;;;;;14.90;8.35;;;;;;;7.69;52.47;101139.41;5018417;28;20032;-89
2022/03/10 09:13:51;;;;;;;15.55;8.25;;;;;;;7.89;51.04;101134.88;5018603;28;20021;-88
2022/03/10 09:16:30;;;;;;;14.68;8.57;;;;;;;8.02;50.00;101136.59;5017572;28;20103;-88
2022/03/10 09:19:01;;;;;;;14.52;8.15;;;;;;;8.29;50.30;101138.22;5036957;28;20025;-88
2022/03/10 09:21:32;;;;;;;13.02;8.32;;;;;;;8.37;48.36;101139.94;5018370;28;20037;-88
2022/03/10 09:23:57;;;;;;;13.30;8.02;;;;;;;8.46;49.41;101135.41;5018722;28;20504;-88
2022/03/10 09:26:29;;;;;;;14.00;8.15;;;;;;;8.82;49.91;101133.38;5017994;28;20065;-88
2022/03/10 09:28:54;;;;;;;14.23;8.25;;;;;;;8.98;47.56;101137.69;5017635;28;20029;-88
2022/03/10 09:31:20;;;;;;;13.70;8.15;;;;;;;8.87;47.15;101129.78;5035849;28;20171;-88
2022/03/10 09:33:51;;;;;;;12.52;8.25;;;;;;;8.92;47.32;101139.50;5036590;28;20466;-88
2022/03/10 09:36:16;;;;;;;15.95;8.35;;;;;;;9.14;46.64;101143.75;5035024;28;20018;-87
2022/03/10 09:38:45;;;;;;;16.42;8.07;;;;;;;9.32;46.63;101145.34;5017157;28;20033;-88
2022/03/10 09:41:16;;;;;;;12.45;7.65;;;;;;;9.56;45.77;101147.75;5017423;28;20021;-87
2022/03/10 09:43:49;;;;;;;13.15;8.15;;;;;;;9.65;45.36;101136.97;5035672;28;20108;-87
2022/03/10 09:46:21;;;;;;;13.13;8.65;;;;;;;9.80;45.11;101127.00;5017677;28;20025;-87
2022/03/10 09:48:47;;;;;;;12.40;7.70;;;;;;;9.87;45.53;101134.00;5017064;28;20128;-88
2022/03/10 09:51:16;;;;;;;13.50;8.00;;;;;;;9.97;45.34;101133.91;5034675;28;20565;-88
2022/03/10 09:53:44;;;;;;;10.65;7.38;;;;;;;9.89;44.74;101132.22;5017208;28;20473;-87
2022/03/10 09:56:18;;;;;;;14.00;8.32;;;;;;;10.02;44.41;101132.03;5033468;28;20057;-88
2022/03/10 09:58:55;;;;;;;15.10;8.70;;;;;;;10.22;44.59;101130.88;5017490;28;20041;-88
2022/03/10 10:01:21;;;;;;;12.80;8.13;;;;;;;10.38;43.74;101129.75;5016783;28;20026;-88
2022/03/10 10:03:56;;;;;;;15.23;8.23;;;;;;;10.52;43.96;101133.97;5017561;28;20033;-88
2022/03/10 10:06:21;;;;;;;15.98;8.15;;;;;;;10.59;44.00;101135.66;5016183;28;20049;-88
2022/03/10 10:08:56;;;;;;;13.32;7.88;;;;;;;10.91;42.62;101127.09;5035331;28;20103;-88
2022/03/10 10:11:33;;;;;;;15.95;7.88;;;;;;;10.85;43.04;101122.75;5016230;28;20041;-88
2022/03/10 10:13:59;;;;;;;14.23;8.18;;;;;;;10.82;41.82;101122.81;5016910;28;20109;-88
2022/03/10 10:16:24;;;;;;;12.45;7.85;;;;;;;11.13;42.20;101126.72;5034189;28;20041;-87
2022/03/10 10:18:59;;;;;;;12.82;8.23;;;;;;;11.50;42.71;101125.09;5034659;28;20029;-88
2022/03/10 10:21:34;;;;;;;13.57;8.30;;;;;;;11.46;42.56;101123.41;5034753;28;20032;-88
2022/03/10 10:23:59;;;;;;;13.50;8.30;;;;;;;11.43;41.52;101124.34;5017786;28;20032;-88
2022/03/10 10:26:33;;;;;;;12.73;8.07;;;;;;;11.31;41.79;101120.16;5034259;28;20013;-88
2022/03/10 10:29:02;;;;;;;12.27;8.02;;;;;;;11.43;41.35;101111.00;5017161;28;20029;-88
2022/03/10 10:31:28;;;;;;;14.02;7.82;;;;;;;11.82;41.15;101118.22;5016584;28;20029;-88
2022/03/10 10:34:03;;;;;;;11.02;7.32;;;;;;;12.27;41.97;101116.31;5016958;28;20521;-88
2022/03/10 10:36:34;;;;;;;14.13;7.85;;;;;;;12.15;40.84;101106.78;5016262;28;20508;-89
2022/03/10 10:39:13;;;;;;;13.07;7.70;;;;;;;12.40;41.38;101116.91;5033947;28;20116;-88
2022/03/10 10:41:45;;;;;;;13.05;8.00;;;;;;;12.41;40.18;101107.09;5016468;28;20029;-88
2022/03/10 10:44:17;;;;;;;15.45;9.15;;;;;;;12.28;39.72;101118.09;5017352;28;20034;-88
2022/03/10 10:46:44;;;;;;;12.38;7.97;;;;;;;12.34;38.59;101110.84;5033904;28;20041;-87
2022/03/10 10:49:17;;;;;;;14.15;8.32;;;;;;;12.51;38.99;101110.41;5016407;28;20497;-88
2022/03/10 10:51:48;;;;;;;12.93;7.68;;;;;;;12.50;39.37;101111.31;5034559;28;20030;-88
2022/03/10 10:54:23;;;;;;;12.77;7.60;;;;;;;12.67;39.08;101110.03;5016419;28;20017;-88
2022/03/10 10:56:53;;;;;;;13.68;7.85;;;;;;;12.73;38.97;101102.69;5034354;28;20060;-88
2022/03/10 10:59:32;;;;;;;13.25;8.10;;;;;;;12.68;38.32;101099.25;5016252;28;20372;-89
2022/03/10 11:02:08;;;;;;;14.40;8.00;;;;;;;12.83;38.61;101106.00;5015659;28;20033;-88
2022/03/10 11:04:45;;;;;;;11.10;7.88;;;;;;;12.71;38.74;101095.63;5016019;28;20057;-89
2022/03/10 11:07:17;;;;;;;12.02;7.68;;;;;;;13.37;39.48;101112.63;5033951;28;20485;-89
2022/03/10 11:09:47;;;;;;;13.20;7.75;;;;;;;13.32;38.13;101103.84;5033954;28;20056;-88
2022/03/10 11:12:18;;;;;;;14.57;8.40;;;;;;;13.30;38.19;101107.44;5016095;28;20029;-89
2022/03/10 11:14:46;;;;;;;13.20;8.23;;;;;;;13.48;37.69;101097.09;5033663;28;20021;-88
2022/03/10 11:17:31;;;;;;;12.35;8.05;;;;;;;13.87;37.68;101095.09;5015961;28;20030;-88
2022/03/10 11:20:06;;;;;;;11.73;7.35;;;;;;;13.73;36.60;101096.41;5016561;28;20029;-88
2022/03/10 11:22:59;;;;;;;12.02;7.55;;;;;;;13.54;38.17;101087.09;5016192;28;20030;-89
2022/03/10 11:26:02;;;;;;;10.70;7.67;;;;;;;13.89;36.76;101093.22;5015611;28;20021;-88
2022/03/10 11:28:32;;;;;;;11.93;7.72;;;;;;;13.79;36.88;101091.75;5033817;28;20034;-89
2022/03/10 11:31:04;;;;;;;14.48;8.13;;;;;;;14.02;37.11;101091.03;5014990;28;20041;-88
2022/03/10 11:33:35;;;;;;;13.95;8.35;;;;;;;14.27;37.33;101084.91;5016143;28;20479;-88
2022/03/10 11:36:30;;;;;;;11.43;7.68;;;;;;;14.43;36.80;101086.19;5015226;28;20038;-88